CheckWX is a tool to help pilots better visualize weather data.  It is not intended as a substitute for an official pre-flight weather briefing.

00:54:58 UTC

KBWG TAF
Bowling Green-Warren County Regional Airport
Bowling Green, Kentucky, USA
KBWG 252320Z 2600/2624 36012KT P6SM OVC021 FM260700 02007KT P6SM SKC

Mar-26@
00:00 UTC

Mar-26 @ 00:00 UTC

Mar-26@
07:00 UTC

Mar-26 @ 07:00 UTC

KBWG 252320Z 2600/2624 36012KT P6SM OVC021
Wind
  • 360° at 12 KTS
Cloud Levels
  • Overcast at 2,100' AGL

Mar-26@
07:00 UTC

Mar-26 @ 07:00 UTC

Mar-27@
00:00 UTC

Mar-27 @ 00:00 UTC

FM260700 02007KT P6SM SKC

From

From Standard forecast or significant change

Wind
  • 020° at 7 KTS
Cloud Levels
  • Clear skies